createdAt,value
2022-10-22T00:01:05.277Z,69.10
2022-10-22T00:04:08.222Z,68.90
2022-10-22T00:07:11.368Z,69.20
2022-10-22T00:10:14.410Z,69.45
2022-10-22T00:13:17.207Z,70.20
2022-10-22T00:16:19.914Z,70.62
2022-10-22T00:19:22.656Z,71.65
2022-10-22T00:22:25.344Z,71.09
2022-10-22T00:25:28.237Z,71.45
2022-10-22T00:28:30.994Z,71.09
2022-10-22T00:31:34.026Z,71.19
2022-10-22T00:34:36.810Z,70.55
2022-10-22T00:37:39.517Z,70.65
2022-10-22T00:40:42.271Z,70.73
2022-10-22T00:44:33.115Z,71.10
2022-10-22T00:47:39.707Z,70.83
2022-10-22T00:50:48.238Z,70.85
2022-10-22T00:53:56.146Z,70.99
2022-10-22T00:56:59.076Z,70.61
2022-10-22T01:00:02.328Z,70.63
2022-10-22T01:03:06.836Z,70.01
2022-10-22T01:06:15.046Z,70.63
2022-10-22T01:09:29.894Z,70.61
2022-10-22T01:12:32.565Z,70.70
2022-10-22T01:16:00.401Z,70.37
2022-10-22T01:19:44.991Z,70.42
2022-10-22T01:23:08.991Z,70.80
2022-10-22T01:26:12.085Z,71.24
2022-10-22T01:29:24.229Z,71.74
2022-10-22T01:32:30.183Z,71.67
2022-10-22T01:35:37.761Z,71.73
2022-10-22T01:38:42.855Z,70.95
2022-10-22T01:41:45.771Z,71.56
2022-10-22T01:44:50.371Z,71.75
2022-10-22T01:48:06.660Z,72.34
2022-10-22T01:51:57.107Z,72.09
2022-10-22T01:55:03.691Z,71.34
2022-10-22T01:58:09.516Z,71.61
2022-10-22T02:01:12.258Z,71.63
2022-10-22T02:04:18.307Z,71.87
2022-10-22T02:07:24.818Z,71.48
2022-10-22T02:10:30.362Z,71.00
2022-10-22T02:13:47.358Z,71.23
2022-10-22T02:16:50.916Z,70.73
2022-10-22T02:20:01.517Z,70.97
2022-10-22T02:23:05.247Z,70.57
2022-10-22T02:26:25.010Z,70.65
2022-10-22T02:29:39.305Z,70.47
2022-10-22T02:32:55.630Z,70.29
2022-10-22T02:36:00.910Z,70.09
2022-10-22T02:39:04.577Z,69.73
2022-10-22T02:42:09.263Z,69.35
2022-10-22T02:45:12.080Z,68.69
2022-10-22T02:48:15.034Z,68.17
2022-10-22T02:51:17.888Z,67.90
2022-10-22T02:54:21.211Z,67.25
2022-10-22T02:57:23.908Z,66.77
2022-10-22T03:00:26.702Z,66.56
2022-10-22T03:03:29.541Z,65.87
2022-10-22T03:06:32.568Z,66.07
2022-10-22T03:09:35.612Z,65.87
2022-10-22T03:12:38.420Z,65.84
2022-10-22T03:15:41.120Z,65.96
2022-10-22T03:18:44.042Z,65.60
2022-10-22T03:21:50.812Z,65.46
2022-10-22T03:24:58.472Z,65.96
2022-10-22T03:28:07.534Z,65.64
2022-10-22T03:31:10.399Z,65.73
2022-10-22T03:34:13.608Z,65.82
2022-10-22T03:37:17.277Z,65.93
2022-10-22T03:40:20.981Z,66.17
2022-10-22T03:43:23.740Z,65.95
2022-10-22T03:46:26.571Z,66.40
2022-10-22T03:49:29.375Z,66.29
2022-10-22T03:52:37.782Z,66.50
2022-10-22T03:55:41.715Z,67.20
2022-10-22T03:58:44.409Z,67.84
2022-10-22T04:01:47.143Z,67.86
2022-10-22T04:04:49.964Z,67.61
2022-10-22T04:07:52.784Z,66.81
2022-10-22T04:10:55.630Z,65.95
2022-10-22T04:13:58.427Z,65.32
2022-10-22T04:17:01.519Z,64.96
2022-10-22T04:20:05.385Z,64.97
2022-10-22T04:23:08.151Z,64.42
2022-10-22T04:26:10.914Z,64.48
2022-10-22T04:29:16.141Z,64.39
2022-10-22T04:32:19.270Z,64.42
2022-10-22T04:35:22.369Z,64.32
2022-10-22T04:38:25.129Z,64.95
2022-10-22T04:41:33.681Z,65.74
2022-10-22T04:44:36.416Z,66.04
2022-10-22T04:47:39.516Z,65.85
2022-10-22T04:50:42.542Z,65.70
2022-10-22T04:53:46.730Z,66.49
2022-10-22T04:56:49.542Z,66.61
2022-10-22T04:59:52.663Z,66.99
2022-10-22T05:02:55.506Z,66.67
2022-10-22T05:06:01.730Z,67.14
2022-10-22T05:09:08.083Z,67.46
2022-10-22T05:12:10.928Z,67.66
2022-10-22T05:15:13.683Z,67.58
2022-10-22T05:18:19.056Z,67.71
2022-10-22T05:21:24.695Z,67.48
2022-10-22T05:24:28.829Z,67.52
2022-10-22T05:27:31.724Z,67.21
2022-10-22T05:30:34.486Z,66.76
2022-10-22T05:33:37.365Z,66.12
2022-10-22T05:36:40.249Z,65.52
2022-10-22T05:39:42.984Z,65.41
2022-10-22T05:42:45.700Z,64.96
2022-10-22T05:45:48.523Z,64.15
2022-10-22T05:48:55.395Z,63.76
2022-10-22T05:51:58.075Z,63.40
2022-10-22T05:55:00.850Z,62.93
2022-10-22T05:58:04.876Z,63.02
2022-10-22T06:01:15.701Z,62.95
2022-10-22T06:04:18.768Z,62.94
2022-10-22T06:07:21.465Z,62.53
2022-10-22T06:10:24.355Z,63.46
2022-10-22T06:13:27.080Z,63.22
2022-10-22T06:16:31.135Z,62.20
2022-10-22T06:19:33.990Z,61.78
2022-10-22T06:22:36.854Z,61.15
2022-10-22T06:25:39.623Z,60.78
2022-10-22T06:28:42.444Z,60.20
2022-10-22T06:31:45.347Z,59.47
2022-10-22T06:34:48.496Z,59.12
2022-10-22T06:37:51.284Z,58.57
2022-10-22T06:40:54.069Z,57.71
2022-10-22T06:43:58.074Z,56.03
2022-10-22T06:47:01.288Z,55.20
2022-10-22T06:50:04.278Z,54.37
2022-10-22T06:53:07.082Z,53.56
2022-10-22T06:56:12.476Z,54.16
2022-10-22T06:59:15.307Z,54.45
2022-10-22T07:02:18.147Z,54.93
2022-10-22T07:05:21.610Z,54.61
2022-10-22T07:08:24.617Z,56.10
2022-10-22T07:11:30.000Z,53.83
2022-10-22T07:14:32.922Z,52.68
2022-10-22T07:17:35.712Z,47.18
2022-10-22T07:20:38.478Z,46.45
2022-10-22T07:23:41.303Z,43.73
2022-10-22T07:26:44.247Z,42.23
2022-10-22T07:29:47.018Z,42.57
2022-10-22T07:32:50.271Z,40.75
2022-10-22T07:35:58.881Z,40.16
2022-10-22T07:39:01.912Z,39.86
2022-10-22T07:42:04.970Z,39.51
2022-10-22T07:45:08.453Z,37.46
2022-10-22T07:48:11.700Z,35.90
2022-10-22T07:51:14.799Z,38.66
2022-10-22T07:54:19.370Z,37.61
2022-10-22T07:57:22.302Z,35.19
2022-10-22T08:00:25.547Z,36.87
2022-10-22T08:03:29.467Z,36.10
2022-10-22T08:06:32.428Z,38.11
2022-10-22T08:09:35.275Z,39.81
2022-10-22T08:12:38.658Z,40.13
2022-10-22T08:18:45.816Z,42.94
2022-10-22T08:21:48.968Z,42.02
2022-10-22T08:24:51.694Z,40.48
2022-10-22T08:27:54.558Z,39.52
2022-10-22T08:30:57.510Z,41.10
2022-10-22T08:34:00.550Z,42.32
2022-10-22T08:37:03.468Z,40.55
2022-10-22T08:40:25.709Z,38.96
2022-10-22T08:43:59.128Z,38.38
2022-10-22T08:47:22.343Z,33.75
2022-10-22T08:50:41.989Z,33.18
2022-10-22T08:53:59.138Z,30.41
2022-10-22T09:00:46.209Z,28.47
2022-10-22T09:04:06.820Z,22.83
2022-10-22T09:07:10.547Z,21.54
2022-10-22T09:10:13.680Z,20.93
2022-10-22T09:13:20.334Z,19.18
2022-10-22T09:16:27.267Z,20.21
2022-10-22T09:19:49.211Z,22.93
2022-10-22T09:23:06.039Z,26.20
2022-10-22T09:26:17.066Z,22.22
2022-10-22T09:29:24.725Z,20.20
2022-10-22T09:32:28.582Z,18.64
2022-10-22T09:35:34.253Z,17.84
2022-10-22T09:38:45.477Z,19.79
2022-10-22T09:41:48.528Z,18.28
2022-10-22T09:45:00.256Z,18.42
2022-10-22T09:48:11.970Z,18.15
2022-10-22T09:51:21.123Z,19.08
2022-10-22T09:54:27.775Z,19.11
2022-10-22T09:57:30.586Z,16.37
2022-10-22T10:00:33.635Z,15.47
2022-10-22T10:03:36.358Z,14.24
2022-10-22T10:06:41.647Z,15.52
2022-10-22T10:09:44.457Z,14.57
2022-10-22T10:13:05.611Z,14.04
2022-10-22T10:16:20.479Z,13.92
2022-10-22T10:19:23.216Z,14.61
2022-10-22T10:22:38.104Z,16.42
2022-10-22T10:25:58.421Z,16.71
2022-10-22T10:29:19.360Z,17.19
2022-10-22T10:32:23.743Z,17.87
2022-10-22T10:35:37.164Z,18.97
2022-10-22T10:39:34.861Z,19.33
2022-10-22T10:42:44.577Z,18.80
2022-10-22T10:46:11.836Z,17.66
2022-10-22T10:49:26.039Z,18.74
2022-10-22T10:52:41.776Z,20.37
2022-10-22T10:56:01.833Z,21.40
2022-10-22T10:59:10.305Z,21.54
2022-10-22T11:02:28.042Z,22.13
2022-10-22T11:05:42.675Z,22.05
2022-10-22T11:09:09.425Z,23.51
2022-10-22T11:12:27.318Z,23.81
2022-10-22T11:15:39.519Z,24.73
2022-10-22T11:18:53.162Z,25.52
2022-10-22T11:22:10.721Z,26.04
2022-10-22T11:25:13.408Z,26.55
2022-10-22T11:28:42.459Z,26.73
2022-10-22T11:31:46.020Z,27.06
2022-10-22T11:34:59.840Z,27.26
2022-10-22T11:38:06.623Z,27.69
2022-10-22T11:41:16.183Z,27.60
2022-10-22T11:44:23.715Z,28.30
2022-10-22T11:47:30.098Z,28.33
2022-10-22T11:50:45.258Z,29.10
2022-10-22T11:53:58.863Z,29.40
2022-10-22T11:57:16.815Z,29.97
2022-10-22T12:00:41.259Z,30.91
2022-10-22T12:04:13.006Z,30.85
2022-10-22T12:07:35.723Z,30.43
2022-10-22T12:11:12.431Z,30.79
2022-10-22T12:14:29.977Z,31.06
2022-10-22T12:17:32.798Z,30.85
2022-10-22T12:20:35.913Z,30.58
2022-10-22T12:23:39.040Z,30.97
2022-10-22T12:26:41.951Z,31.16
2022-10-22T12:29:44.797Z,31.48
2022-10-22T12:32:47.575Z,31.92
2022-10-22T12:35:53.425Z,31.81
2022-10-22T12:39:00.673Z,31.83
2022-10-22T12:42:06.430Z,32.23
2022-10-22T12:45:09.810Z,32.54
2022-10-22T12:48:34.540Z,32.65
2022-10-22T12:51:37.421Z,33.36
2022-10-22T12:54:40.790Z,33.26
2022-10-22T12:57:43.556Z,33.02
2022-10-22T13:00:47.894Z,33.30
2022-10-22T13:04:03.760Z,33.88
2022-10-22T13:07:12.570Z,34.11
2022-10-22T13:10:26.302Z,33.92
2022-10-22T13:13:45.776Z,33.59
2022-10-22T13:17:09.367Z,33.67
2022-10-22T13:20:23.784Z,34.35
2022-10-22T13:23:28.356Z,34.50
2022-10-22T13:26:34.985Z,34.39
2022-10-22T13:29:41.772Z,34.53
2022-10-22T13:32:50.810Z,34.71
2022-10-22T13:35:55.344Z,34.93
2022-10-22T13:38:58.229Z,35.27
2022-10-22T13:42:01.012Z,35.18
2022-10-22T13:45:07.298Z,35.79
2022-10-22T13:48:16.270Z,36.02
2022-10-22T13:51:24.839Z,36.40
2022-10-22T13:54:27.592Z,36.46
2022-10-22T13:57:30.371Z,36.59
2022-10-22T14:00:33.398Z,36.59
2022-10-22T14:03:38.165Z,37.08
2022-10-22T14:06:40.903Z,37.55
2022-10-22T14:09:43.845Z,37.71
2022-10-22T14:12:52.276Z,38.24
2022-10-22T14:15:56.349Z,38.24
2022-10-22T14:19:00.937Z,38.51
2022-10-22T14:22:03.680Z,38.56
2022-10-22T14:25:06.745Z,38.53
2022-10-22T14:28:11.099Z,39.01
2022-10-22T14:31:13.914Z,38.80
2022-10-22T14:34:17.235Z,39.31
2022-10-22T14:37:20.925Z,39.42
2022-10-22T14:40:23.858Z,39.93
2022-10-22T14:43:31.331Z,39.60
2022-10-22T14:46:34.357Z,40.48
2022-10-22T14:49:37.171Z,40.56
2022-10-22T14:52:41.421Z,40.43
2022-10-22T15:00:05.297Z,40.52
2022-10-22T15:03:08.160Z,41.02
2022-10-22T15:06:11.066Z,41.30
2022-10-22T15:09:15.147Z,41.81
2022-10-22T15:12:18.098Z,42.04
2022-10-22T15:15:22.804Z,41.59
2022-10-22T15:18:27.242Z,42.37
2022-10-22T15:21:30.118Z,42.61
2022-10-22T15:24:33.446Z,42.98
2022-10-22T15:27:36.231Z,43.47
2022-10-22T15:30:39.120Z,47.36
2022-10-22T15:33:43.455Z,53.87
2022-10-22T15:36:46.506Z,59.91
2022-10-22T15:39:49.564Z,63.60
2022-10-22T15:42:52.517Z,65.56
2022-10-22T15:46:08.622Z,65.77
2022-10-22T15:49:12.729Z,65.99
2022-10-22T15:52:16.438Z,66.07
2022-10-22T15:55:19.331Z,66.62
2022-10-22T15:58:22.129Z,66.54
2022-10-22T16:01:26.841Z,66.85
2022-10-22T16:04:29.668Z,66.94
2022-10-22T16:07:32.664Z,66.86
2022-10-22T16:10:35.875Z,66.90
2022-10-22T16:13:38.967Z,67.17
2022-10-22T16:16:47.453Z,67.41
2022-10-22T16:19:50.163Z,67.16
2022-10-22T16:22:53.017Z,66.67
2022-10-22T16:25:55.803Z,66.32
2022-10-22T16:28:59.219Z,66.49
2022-10-22T16:32:02.111Z,67.72
2022-10-22T16:35:05.221Z,69.17
2022-10-22T16:38:09.881Z,70.00
2022-10-22T16:41:20.812Z,70.38
2022-10-22T16:44:23.851Z,69.80
2022-10-22T16:47:26.618Z,70.10
2022-10-22T16:50:29.381Z,70.58
2022-10-22T16:53:32.340Z,70.29
2022-10-22T16:56:36.605Z,69.94
2022-10-22T16:59:39.614Z,69.73
2022-10-22T17:02:42.762Z,70.20
2022-10-22T17:05:45.910Z,69.61
2022-10-22T17:08:48.887Z,68.34
2022-10-22T17:11:52.135Z,68.12
2022-10-22T17:14:55.091Z,67.70
2022-10-22T17:18:00.715Z,68.01
2022-10-22T17:21:05.414Z,68.03
2022-10-22T17:24:08.515Z,68.48
2022-10-22T17:27:11.243Z,68.85
2022-10-22T17:30:23.294Z,71.30
2022-10-22T17:33:29.617Z,73.43
2022-10-22T17:36:35.720Z,74.42
2022-10-22T17:39:39.092Z,76.99
2022-10-22T17:42:42.032Z,78.76
2022-10-22T17:45:45.320Z,79.98
2022-10-22T17:48:56.752Z,80.34
2022-10-22T17:55:04.502Z,82.42
2022-10-22T18:03:39.543Z,82.98
2022-10-22T18:06:42.519Z,83.58
2022-10-22T18:09:45.906Z,84.60
2022-10-22T18:12:49.291Z,85.30
2022-10-22T18:16:10.070Z,85.33
2022-10-22T18:19:48.298Z,84.35
2022-10-22T18:22:51.382Z,84.21
2022-10-22T18:25:57.031Z,84.15
2022-10-22T18:29:35.101Z,83.75
2022-10-22T18:32:42.959Z,83.63
2022-10-22T18:35:46.930Z,83.90
2022-10-22T18:38:58.784Z,84.11
2022-10-22T18:42:06.416Z,84.81
2022-10-22T18:45:10.867Z,85.34
2022-10-22T18:48:17.369Z,85.73
2022-10-22T18:51:21.163Z,85.46
2022-10-22T18:54:24.744Z,85.44
2022-10-22T18:57:28.006Z,85.24
2022-10-22T19:00:31.463Z,84.52
2022-10-22T19:03:34.730Z,84.73
2022-10-22T19:06:38.469Z,84.76
2022-10-22T19:09:43.448Z,85.12
2022-10-22T19:12:46.258Z,85.39
2022-10-22T19:15:49.668Z,85.29
2022-10-22T19:19:15.294Z,85.95
2022-10-22T19:22:18.267Z,85.32
2022-10-22T19:25:21.166Z,85.31
2022-10-22T19:28:24.052Z,85.43
2022-10-22T19:31:30.107Z,84.77
2022-10-22T19:34:32.983Z,85.23
2022-10-22T19:37:37.711Z,85.74
2022-10-22T19:40:43.571Z,85.59
2022-10-22T19:43:49.696Z,84.40
2022-10-22T19:46:54.149Z,84.40
2022-10-22T19:49:56.988Z,84.65
2022-10-22T19:53:01.589Z,84.10
2022-10-22T19:56:10.088Z,85.79
2022-10-22T19:59:15.411Z,86.05
2022-10-22T20:02:18.966Z,85.56
2022-10-22T20:08:26.056Z,86.05
2022-10-22T20:11:29.982Z,85.64
2022-10-22T20:14:33.616Z,85.37
2022-10-22T20:17:36.887Z,87.21
2022-10-22T20:20:39.797Z,87.22
2022-10-22T20:23:43.324Z,87.54
2022-10-22T20:26:47.117Z,87.49
2022-10-22T20:29:49.971Z,88.03
2022-10-22T20:32:52.978Z,88.06
2022-10-22T20:36:05.364Z,88.27
2022-10-22T20:39:12.860Z,87.41
2022-10-22T20:42:16.735Z,86.77
2022-10-22T20:45:19.650Z,86.93
2022-10-22T20:48:26.730Z,87.23
2022-10-22T20:51:29.654Z,87.94
2022-10-22T20:54:33.068Z,88.93
2022-10-22T20:57:36.428Z,89.72
2022-10-22T21:00:39.928Z,88.74
2022-10-22T21:03:42.990Z,89.68
2022-10-22T21:06:46.144Z,90.32
2022-10-22T21:09:50.945Z,90.44
2022-10-22T21:12:53.650Z,90.89
2022-10-22T21:15:56.500Z,91.21
2022-10-22T21:18:59.408Z,91.98
2022-10-22T21:22:02.165Z,92.31
2022-10-22T21:25:05.297Z,92.66
2022-10-22T21:28:08.224Z,92.35
2022-10-22T21:31:18.826Z,92.58
2022-10-22T21:34:21.659Z,93.20
2022-10-22T21:37:24.570Z,93.19
2022-10-22T21:40:28.243Z,92.79
2022-10-22T21:43:30.894Z,94.06
2022-10-22T21:46:34.640Z,93.52
2022-10-22T21:49:37.443Z,93.46
2022-10-22T21:52:40.283Z,93.57
2022-10-22T21:55:43.053Z,93.19
2022-10-22T21:58:45.945Z,93.23
2022-10-22T22:01:48.803Z,93.83
2022-10-22T22:04:54.912Z,94.46
2022-10-22T22:07:57.767Z,94.29
2022-10-22T22:11:14.136Z,94.81
2022-10-22T22:14:16.906Z,95.15
2022-10-22T22:17:19.618Z,95.31
2022-10-22T22:20:22.276Z,95.52
2022-10-22T22:23:25.818Z,95.72
2022-10-22T22:26:30.010Z,95.50
2022-10-22T22:29:33.393Z,95.34
2022-10-22T22:32:36.220Z,95.08
2022-10-22T22:38:41.982Z,95.27
2022-10-22T22:41:46.082Z,95.01
2022-10-22T22:44:48.875Z,95.22
2022-10-22T22:47:51.735Z,95.07
2022-10-22T22:50:54.867Z,95.07
2022-10-22T22:53:58.838Z,95.29
2022-10-22T22:57:01.549Z,94.95
2022-10-22T23:00:05.906Z,95.81
2022-10-22T23:03:11.927Z,94.87
2022-10-22T23:06:15.525Z,94.75
2022-10-22T23:12:23.577Z,94.68
2022-10-22T23:15:26.432Z,94.74
2022-10-22T23:18:29.415Z,94.59
2022-10-22T23:21:34.930Z,94.81
2022-10-22T23:24:38.231Z,95.31
2022-10-22T23:27:41.283Z,94.71
2022-10-22T23:30:45.319Z,94.71
2022-10-22T23:33:49.138Z,95.00
2022-10-22T23:36:52.756Z,94.76
2022-10-22T23:39:55.673Z,94.85
2022-10-22T23:42:58.539Z,94.78
2022-10-22T23:46:01.475Z,95.01
2022-10-22T23:49:05.868Z,95.08
2022-10-22T23:52:08.584Z,94.97
2022-10-22T23:55:11.298Z,94.92
2022-10-22T23:58:14.062Z,94.89
